createdAt,value
2022-12-07T00:02:01.474Z,2.17
2022-12-07T00:04:28.360Z,1.80
2022-12-07T00:06:55.328Z,2.40
2022-12-07T00:09:22.338Z,2.35
2022-12-07T00:11:51.547Z,2.35
2022-12-07T00:14:19.385Z,1.75
2022-12-07T00:16:46.809Z,2.28
2022-12-07T00:19:15.544Z,2.88
2022-12-07T00:21:43.071Z,2.70
2022-12-07T00:24:11.380Z,2.60
2022-12-07T00:26:40.835Z,2.85
2022-12-07T00:29:18.021Z,2.35
2022-12-07T00:31:45.015Z,2.15
2022-12-07T00:34:19.002Z,2.45
2022-12-07T00:36:45.945Z,2.13
2022-12-07T00:39:12.962Z,2.65
2022-12-07T00:41:39.724Z,2.13
2022-12-07T00:44:06.718Z,3.33
2022-12-07T00:46:33.740Z,2.33
2022-12-07T00:49:00.736Z,2.20
2022-12-07T00:51:27.904Z,2.67
2022-12-07T00:53:55.195Z,2.50
2022-12-07T00:56:25.130Z,2.78
2022-12-07T00:59:03.187Z,2.42
2022-12-07T01:01:33.069Z,2.28
2022-12-07T01:04:02.462Z,3.08
2022-12-07T01:06:30.400Z,2.10
2022-12-07T01:08:57.714Z,2.30
2022-12-07T01:11:30.101Z,2.75
2022-12-07T01:13:59.137Z,2.40
2022-12-07T01:16:28.651Z,2.50
2022-12-07T01:18:57.793Z,2.50
2022-12-07T01:21:29.793Z,2.40
2022-12-07T01:23:58.947Z,2.40
2022-12-07T01:26:26.906Z,3.00
2022-12-07T01:28:56.057Z,2.63
2022-12-07T01:31:25.280Z,2.85
2022-12-07T01:33:55.291Z,2.58
2022-12-07T01:36:25.519Z,2.65
2022-12-07T01:39:01.652Z,2.97
2022-12-07T01:41:33.399Z,2.60
2022-12-07T01:44:12.583Z,2.95
2022-12-07T01:46:40.937Z,2.65
2022-12-07T01:49:11.604Z,2.95
2022-12-07T01:51:39.853Z,3.25
2022-12-07T01:54:07.323Z,3.33
2022-12-07T01:56:34.512Z,3.08
2022-12-07T01:59:02.115Z,3.17
2022-12-07T02:01:29.715Z,3.30
2022-12-07T02:03:56.890Z,2.85
2022-12-07T02:06:26.188Z,2.83
2022-12-07T02:08:53.565Z,2.72
2022-12-07T02:11:21.713Z,2.90
2022-12-07T02:13:49.452Z,2.92
2022-12-07T02:16:38.027Z,3.20
2022-12-07T02:19:13.545Z,2.95
2022-12-07T02:22:02.178Z,3.25
2022-12-07T02:25:04.424Z,3.78
2022-12-07T02:27:48.580Z,3.28
2022-12-07T02:30:18.415Z,3.80
2022-12-07T02:33:08.811Z,3.63
2022-12-07T02:35:48.529Z,4.30
2022-12-07T02:38:32.464Z,4.88
2022-12-07T02:41:05.125Z,5.22
2022-12-07T02:43:38.267Z,5.18
2022-12-07T02:46:11.030Z,5.38
2022-12-07T02:48:39.762Z,7.53
2022-12-07T02:51:06.893Z,5.18
2022-12-07T02:53:42.518Z,5.45
2022-12-07T02:56:27.614Z,5.13
2022-12-07T02:59:13.551Z,5.82
2022-12-07T03:01:52.487Z,5.20
2022-12-07T03:04:22.356Z,5.82
2022-12-07T03:26:23.014Z,7.13
2022-12-07T03:28:59.016Z,6.40
2022-12-07T03:31:40.697Z,6.07
2022-12-07T03:34:24.695Z,8.48
2022-12-07T03:36:58.503Z,7.30
2022-12-07T03:39:34.981Z,6.32
2022-12-07T03:42:05.355Z,6.72
2022-12-07T03:44:34.134Z,6.57
2022-12-07T03:47:23.082Z,7.45
2022-12-07T03:50:00.569Z,7.80
2022-12-07T03:52:32.052Z,7.13
2022-12-07T03:55:10.126Z,7.15
2022-12-07T03:57:38.985Z,6.78
2022-12-07T04:00:08.714Z,6.72
2022-12-07T04:02:43.055Z,7.38
2022-12-07T04:05:10.575Z,6.80
2022-12-07T04:07:37.462Z,7.30
2022-12-07T04:10:06.023Z,7.45
2022-12-07T04:12:33.097Z,7.13
2022-12-07T04:14:59.946Z,7.15
2022-12-07T04:17:27.205Z,7.18
2022-12-07T04:19:54.041Z,8.52
2022-12-07T04:22:20.933Z,7.57
2022-12-07T04:24:47.884Z,8.05
2022-12-07T04:27:14.771Z,8.27
2022-12-07T04:29:41.671Z,8.40
2022-12-07T04:32:08.616Z,8.07
2022-12-07T04:34:35.500Z,7.85
2022-12-07T04:37:02.380Z,7.55
2022-12-07T04:39:31.230Z,7.18
2022-12-07T04:41:59.523Z,8.77
2022-12-07T04:44:27.644Z,7.57
2022-12-07T04:46:55.416Z,7.43
2022-12-07T04:49:22.492Z,8.35
2022-12-07T04:51:49.446Z,8.60
2022-12-07T04:54:17.777Z,7.22
2022-12-07T04:56:45.357Z,8.82
2022-12-07T04:59:13.340Z,8.35
2022-12-07T05:01:40.435Z,7.97
2022-12-07T05:04:07.833Z,8.77
2022-12-07T05:06:35.440Z,7.97
2022-12-07T05:09:05.907Z,9.32
2022-12-07T05:11:41.933Z,8.40
2022-12-07T05:14:20.005Z,9.05
2022-12-07T05:16:50.074Z,10.23
2022-12-07T05:19:20.500Z,10.88
2022-12-07T05:21:48.111Z,11.23
2022-12-07T05:24:17.018Z,12.52
2022-12-07T05:26:45.082Z,11.57
2022-12-07T05:29:16.903Z,12.70
2022-12-07T05:31:44.582Z,11.88
2022-12-07T05:34:11.681Z,12.40
2022-12-07T05:36:38.546Z,12.88
2022-12-07T05:39:05.868Z,15.18
2022-12-07T05:41:51.214Z,16.52
2022-12-07T05:44:18.329Z,20.85
2022-12-07T05:46:45.134Z,18.83
2022-12-07T05:49:12.002Z,19.25
2022-12-07T05:51:38.917Z,20.40
2022-12-07T05:54:05.943Z,19.15
2022-12-07T05:56:33.064Z,17.15
2022-12-07T05:59:18.491Z,15.30
2022-12-07T06:01:45.555Z,13.65
2022-12-07T06:04:12.618Z,14.88
2022-12-07T06:06:39.988Z,11.65
2022-12-07T06:09:06.977Z,14.13
2022-12-07T06:11:52.497Z,13.15
2022-12-07T06:14:19.487Z,13.85
2022-12-07T06:16:46.748Z,11.85
2022-12-07T06:19:13.660Z,12.90
2022-12-07T06:21:40.713Z,11.70
2022-12-07T06:24:07.966Z,11.10
2022-12-07T06:26:34.828Z,12.57
2022-12-07T06:29:02.036Z,11.52
2022-12-07T06:31:29.164Z,13.35
2022-12-07T06:34:04.278Z,13.50
2022-12-07T06:36:31.491Z,12.52
2022-12-07T06:38:58.381Z,11.57
2022-12-07T06:41:25.374Z,11.75
2022-12-07T06:43:56.053Z,10.05
2022-12-07T06:46:24.965Z,9.98
2022-12-07T06:48:51.948Z,10.10
2022-12-07T06:51:19.269Z,11.43
2022-12-07T06:53:46.319Z,12.18
2022-12-07T06:56:13.483Z,13.77
2022-12-07T06:58:40.737Z,12.60
2022-12-07T07:01:15.211Z,12.90
2022-12-07T07:03:42.215Z,11.75
2022-12-07T07:06:09.859Z,11.30
2022-12-07T07:08:37.966Z,10.88
2022-12-07T07:11:05.954Z,10.18
2022-12-07T07:13:32.803Z,9.82
2022-12-07T07:16:00.095Z,10.20
2022-12-07T07:18:27.481Z,9.40
2022-12-07T07:20:55.254Z,9.25
2022-12-07T07:23:22.745Z,8.95
2022-12-07T07:25:49.923Z,8.50
2022-12-07T07:28:17.636Z,8.63
2022-12-07T07:30:44.634Z,8.35
2022-12-07T07:33:12.315Z,7.65
2022-12-07T07:35:40.330Z,7.85
2022-12-07T07:38:08.085Z,7.80
2022-12-07T07:40:35.841Z,8.15
2022-12-07T07:43:03.212Z,7.63
2022-12-07T07:45:30.208Z,6.78
2022-12-07T07:47:57.141Z,7.93
2022-12-07T07:50:24.111Z,12.13
2022-12-07T07:52:51.147Z,8.10
2022-12-07T07:55:18.121Z,6.85
2022-12-07T07:57:49.689Z,7.22
2022-12-07T08:00:20.629Z,7.15
2022-12-07T08:02:47.679Z,7.75
2022-12-07T08:05:15.062Z,6.05
2022-12-07T08:07:42.189Z,7.10
2022-12-07T08:10:14.324Z,6.57
2022-12-07T08:13:01.171Z,7.40
2022-12-07T08:15:29.673Z,6.78
2022-12-07T08:17:56.844Z,5.53
2022-12-07T08:20:23.965Z,6.22
2022-12-07T08:22:50.913Z,5.97
2022-12-07T08:25:18.090Z,7.70
2022-12-07T08:27:44.953Z,8.45
2022-12-07T08:30:12.336Z,6.57
2022-12-07T08:32:39.215Z,7.28
2022-12-07T08:35:06.633Z,8.40
2022-12-07T08:37:34.151Z,7.75
2022-12-07T08:40:01.598Z,6.38
2022-12-07T08:42:31.039Z,6.72
2022-12-07T08:44:58.476Z,6.32
2022-12-07T08:47:26.359Z,6.30
2022-12-07T08:49:54.629Z,6.70
2022-12-07T08:52:23.508Z,5.57
2022-12-07T08:54:50.470Z,5.82
2022-12-07T08:57:17.505Z,5.60
2022-12-07T08:59:44.442Z,5.25
2022-12-07T09:02:11.493Z,5.05
2022-12-07T09:04:38.428Z,5.95
2022-12-07T09:07:05.606Z,5.97
2022-12-07T09:09:32.611Z,6.18
2022-12-07T09:11:59.732Z,5.00
2022-12-07T09:14:26.627Z,6.05
2022-12-07T09:16:53.504Z,6.07
2022-12-07T09:19:20.465Z,5.43
2022-12-07T09:21:47.369Z,5.90
2022-12-07T09:24:14.973Z,6.05
2022-12-07T09:26:41.947Z,6.43
2022-12-07T09:29:08.863Z,5.32
2022-12-07T09:31:37.937Z,5.65
2022-12-07T09:34:05.987Z,6.35
2022-12-07T09:36:32.911Z,5.88
2022-12-07T09:39:00.132Z,5.95
2022-12-07T09:41:28.682Z,5.63
2022-12-07T09:44:04.031Z,5.20
2022-12-07T09:46:38.441Z,6.72
2022-12-07T09:49:06.639Z,5.30
2022-12-07T09:51:33.585Z,6.32
2022-12-07T09:54:01.455Z,6.18
2022-12-07T09:56:31.793Z,7.18
2022-12-07T09:59:03.945Z,6.90
2022-12-07T10:01:33.101Z,6.88
2022-12-07T10:04:14.124Z,7.30
2022-12-07T10:06:42.268Z,8.30
2022-12-07T10:09:14.527Z,7.55
2022-12-07T10:12:10.473Z,6.85
2022-12-07T10:17:36.348Z,6.28
2022-12-07T10:20:26.853Z,6.97
2022-12-07T10:23:07.563Z,6.97
2022-12-07T10:25:37.620Z,7.80
2022-12-07T10:28:17.961Z,6.40
2022-12-07T10:30:57.942Z,7.07
2022-12-07T10:33:50.549Z,6.80
2022-12-07T10:36:41.047Z,9.23
2022-12-07T10:39:20.392Z,7.60
2022-12-07T10:41:58.778Z,8.75
2022-12-07T10:44:28.725Z,8.27
2022-12-07T10:47:38.003Z,6.03
2022-12-07T10:50:27.955Z,8.07
2022-12-07T10:52:57.705Z,8.10
2022-12-07T10:55:42.971Z,7.07
2022-12-07T10:58:40.698Z,8.27
2022-12-07T11:01:25.382Z,7.90
2022-12-07T11:03:58.369Z,7.28
2022-12-07T11:06:57.496Z,7.90
2022-12-07T11:10:06.324Z,7.60
2022-12-07T11:12:46.213Z,8.57
2022-12-07T11:15:39.158Z,7.25
2022-12-07T11:18:33.522Z,7.95
2022-12-07T11:21:17.096Z,27.25
2022-12-07T11:24:03.033Z,21.47
2022-12-07T11:26:54.046Z,28.55
2022-12-07T11:29:38.558Z,22.38
2022-12-07T11:35:06.031Z,11.15
2022-12-07T11:37:36.464Z,31.95
2022-12-07T11:40:15.893Z,6.05
2022-12-07T11:42:50.597Z,6.15
2022-12-07T11:45:42.269Z,16.45
2022-12-07T11:48:44.628Z,9.25
2022-12-07T11:51:13.300Z,10.75
2022-12-07T11:53:47.281Z,14.05
2022-12-07T11:56:17.490Z,15.77
2022-12-07T11:58:53.588Z,8.30
2022-12-07T12:01:35.439Z,7.55
2022-12-07T12:04:11.324Z,7.35
2022-12-07T12:06:38.168Z,8.38
2022-12-07T12:15:27.570Z,7.72
2022-12-07T12:18:03.383Z,6.50
2022-12-07T12:20:50.843Z,6.85
2022-12-07T12:23:35.241Z,6.90
2022-12-07T12:26:06.133Z,6.13
2022-12-07T12:28:53.321Z,7.60
2022-12-07T12:31:22.989Z,8.40
2022-12-07T12:33:52.698Z,7.28
2022-12-07T12:36:40.290Z,7.80
2022-12-07T12:39:14.581Z,7.68
2022-12-07T12:41:44.538Z,8.85
2022-12-07T12:44:20.163Z,7.70
2022-12-07T12:46:58.608Z,7.78
2022-12-07T12:49:28.769Z,8.23
2022-12-07T12:51:58.564Z,9.35
2022-12-07T12:54:39.145Z,9.63
2022-12-07T12:57:20.759Z,9.57
2022-12-07T12:59:53.510Z,9.65
2022-12-07T13:02:38.413Z,7.97
2022-12-07T13:05:08.968Z,7.75
2022-12-07T13:07:48.214Z,8.38
2022-12-07T13:10:36.341Z,9.13
2022-12-07T13:13:25.956Z,8.50
2022-12-07T13:16:09.770Z,8.63
2022-12-07T13:18:38.367Z,8.77
2022-12-07T13:21:08.281Z,9.10
2022-12-07T13:23:39.572Z,8.77
2022-12-07T13:26:21.378Z,7.82
2022-12-07T13:29:11.420Z,7.22
2022-12-07T13:31:53.314Z,10.05
2022-12-07T13:34:36.545Z,8.63
2022-12-07T13:37:14.037Z,8.10
2022-12-07T13:40:18.734Z,9.35
2022-12-07T13:42:45.936Z,9.32
2022-12-07T13:45:48.796Z,7.93
2022-12-07T13:48:25.522Z,7.80
2022-12-07T13:50:57.689Z,9.52
2022-12-07T13:53:25.611Z,8.27
2022-12-07T13:55:54.757Z,8.68
2022-12-07T13:58:23.310Z,10.30
2022-12-07T14:00:50.492Z,8.23
2022-12-07T14:03:17.429Z,8.82
2022-12-07T14:05:46.382Z,8.73
2022-12-07T14:08:13.975Z,10.18
2022-12-07T14:10:49.907Z,9.45
2022-12-07T14:13:40.316Z,8.90
2022-12-07T14:16:38.961Z,9.93
2022-12-07T14:19:26.932Z,9.05
2022-12-07T14:22:09.096Z,9.10
2022-12-07T14:24:45.456Z,10.50
2022-12-07T14:27:26.568Z,9.45
2022-12-07T14:29:53.512Z,10.18
2022-12-07T14:32:29.009Z,10.25
2022-12-07T14:35:02.068Z,10.15
2022-12-07T14:37:30.961Z,11.13
2022-12-07T14:39:58.405Z,11.02
2022-12-07T14:42:29.795Z,11.00
2022-12-07T14:44:57.616Z,15.90
2022-12-07T14:50:18.620Z,17.73
2022-12-07T14:55:37.819Z,25.92
2022-12-07T14:58:04.749Z,22.90
2022-12-07T15:00:31.710Z,23.80
2022-12-07T15:02:58.673Z,17.92
2022-12-07T15:05:25.588Z,14.35
2022-12-07T15:07:53.302Z,15.30
2022-12-07T15:10:23.970Z,11.48
2022-12-07T15:28:04.866Z,10.15
2022-12-07T15:30:31.789Z,10.50
2022-12-07T15:32:58.656Z,10.85
2022-12-07T15:35:25.534Z,11.65
2022-12-07T15:37:52.494Z,11.13
2022-12-07T15:40:19.434Z,9.48
2022-12-07T15:42:46.315Z,12.57
2022-12-07T15:45:14.532Z,10.77
2022-12-07T15:48:26.260Z,11.35
2022-12-07T15:50:30.430Z,12.00
2022-12-07T15:52:57.327Z,11.68
2022-12-07T15:55:24.232Z,11.38
2022-12-07T15:57:51.187Z,11.07
2022-12-07T16:00:18.817Z,11.60
2022-12-07T16:02:45.756Z,13.55
2022-12-07T16:05:12.755Z,11.85
2022-12-07T16:07:39.707Z,13.90
2022-12-07T16:10:07.218Z,11.05
2022-12-07T16:12:34.088Z,14.40
2022-12-07T16:15:01.190Z,13.05
2022-12-07T16:17:28.437Z,13.02
2022-12-07T16:19:55.456Z,12.60
2022-12-07T16:22:22.532Z,12.90
2022-12-07T16:24:49.405Z,14.48
2022-12-07T16:27:16.344Z,14.23
2022-12-07T16:29:43.259Z,13.48
2022-12-07T16:32:10.276Z,14.18
2022-12-07T16:34:37.205Z,14.68
2022-12-07T16:37:05.280Z,15.40
2022-12-07T16:39:34.354Z,14.45
2022-12-07T16:42:01.539Z,14.60
2022-12-07T16:44:28.483Z,15.02
2022-12-07T16:46:55.526Z,13.73
2022-12-07T16:49:22.557Z,14.10
2022-12-07T16:52:14.951Z,13.75
2022-12-07T16:54:39.557Z,13.50
2022-12-07T16:57:06.524Z,13.93
2022-12-07T16:59:33.410Z,13.88
2022-12-07T17:02:00.255Z,14.25
2022-12-07T17:04:27.255Z,14.50
2022-12-07T17:06:54.240Z,14.00
2022-12-07T17:09:21.696Z,15.20
2022-12-07T17:11:49.097Z,12.52
2022-12-07T17:14:35.027Z,13.82
2022-12-07T17:17:02.263Z,13.05
2022-12-07T17:19:32.204Z,12.80
2022-12-07T17:21:59.416Z,13.25
2022-12-07T17:24:26.317Z,13.68
2022-12-07T17:26:53.122Z,12.43
2022-12-07T17:29:21.075Z,13.77
2022-12-07T17:31:51.555Z,14.68
2022-12-07T17:34:19.021Z,15.40
2022-12-07T17:36:46.456Z,14.02
2022-12-07T17:39:16.955Z,13.75
2022-12-07T17:42:02.484Z,14.50
2022-12-07T17:44:29.440Z,13.05
2022-12-07T17:47:02.119Z,14.50
2022-12-07T17:49:29.017Z,12.88
2022-12-07T17:52:14.564Z,12.77
2022-12-07T17:54:41.615Z,14.02
2022-12-07T17:57:09.713Z,14.98
2022-12-07T17:59:36.619Z,14.90
2022-12-07T18:02:04.127Z,13.57
2022-12-07T18:04:31.351Z,13.70
2022-12-07T18:06:58.833Z,14.38
2022-12-07T18:09:25.742Z,13.15
2022-12-07T18:11:52.634Z,13.40
2022-12-07T18:14:19.508Z,13.02
2022-12-07T18:16:46.754Z,11.88
2022-12-07T18:19:14.802Z,11.43
2022-12-07T18:21:42.723Z,12.15
2022-12-07T18:24:14.823Z,10.80
2022-12-07T18:26:43.206Z,10.73
2022-12-07T18:29:15.087Z,10.30
2022-12-07T18:31:46.951Z,10.32
2022-12-07T18:34:19.011Z,9.93
2022-12-07T18:36:50.376Z,10.18
2022-12-07T18:39:18.815Z,9.57
2022-12-07T18:41:45.813Z,8.75
2022-12-07T18:44:13.837Z,10.05
2022-12-07T18:46:42.518Z,9.68
2022-12-07T18:49:14.435Z,9.02
2022-12-07T18:51:41.944Z,9.32
2022-12-07T18:54:09.797Z,8.88
2022-12-07T18:56:39.789Z,10.60
2022-12-07T18:59:26.333Z,8.35
2022-12-07T19:01:55.011Z,8.20
2022-12-07T19:04:22.556Z,8.18
2022-12-07T19:06:50.972Z,8.60
2022-12-07T19:09:18.651Z,9.35
2022-12-07T19:11:52.392Z,11.05
2022-12-07T19:14:28.499Z,9.10
2022-12-07T19:16:58.541Z,9.63
2022-12-07T19:19:33.049Z,13.02
2022-12-07T19:22:00.550Z,14.43
2022-12-07T19:24:28.540Z,16.08
2022-12-07T19:26:55.926Z,17.10
2022-12-07T19:29:22.871Z,16.20
2022-12-07T19:31:50.267Z,14.60
2022-12-07T19:34:17.997Z,24.58
2022-12-07T19:36:46.086Z,19.05
2022-12-07T19:39:15.481Z,21.60
2022-12-07T19:41:46.484Z,15.40
2022-12-07T19:44:18.639Z,18.00
2022-12-07T19:46:50.095Z,18.13
2022-12-07T19:49:18.085Z,16.42
2022-12-07T19:51:48.670Z,17.65
2022-12-07T19:54:18.025Z,15.93
2022-12-07T19:56:45.612Z,14.90
2022-12-07T19:59:13.578Z,17.52
2022-12-07T20:01:42.261Z,18.08
2022-12-07T20:04:12.940Z,11.43
2022-12-07T20:06:40.243Z,12.60
2022-12-07T20:09:07.092Z,12.30
2022-12-07T20:11:52.552Z,16.50
2022-12-07T20:14:19.442Z,12.23
2022-12-07T20:16:48.892Z,13.80
2022-12-07T20:19:16.403Z,14.55
2022-12-07T20:21:44.311Z,17.77
2022-12-07T20:24:14.687Z,16.17
2022-12-07T20:26:41.656Z,15.40
2022-12-07T20:29:16.303Z,19.88
2022-12-07T20:31:45.930Z,19.73
2022-12-07T20:34:12.966Z,18.60
2022-12-07T20:36:39.985Z,17.83
2022-12-07T20:39:10.190Z,13.88
2022-12-07T20:41:57.870Z,19.60
2022-12-07T20:44:25.476Z,20.48
2022-12-07T20:46:52.539Z,32.30
2022-12-07T20:49:19.452Z,27.67
2022-12-07T20:51:46.873Z,16.55
2022-12-07T20:54:14.599Z,16.45
2022-12-07T20:56:41.944Z,19.65
2022-12-07T20:59:12.654Z,18.77
2022-12-07T21:01:40.156Z,15.48
2022-12-07T21:04:07.458Z,19.35
2022-12-07T21:06:34.472Z,26.67
2022-12-07T21:09:01.429Z,23.73
2022-12-07T21:11:30.147Z,25.17
2022-12-07T21:13:57.185Z,24.33
2022-12-07T21:16:29.651Z,24.95
2022-12-07T21:19:00.123Z,25.00
2022-12-07T21:21:27.009Z,23.92
2022-12-07T21:24:01.573Z,25.42
2022-12-07T21:26:30.095Z,31.33
2022-12-07T21:28:57.580Z,27.98
2022-12-07T21:31:25.374Z,27.95
2022-12-07T21:33:52.483Z,26.08
2022-12-07T21:36:21.916Z,27.80
2022-12-07T21:38:49.558Z,25.73
2022-12-07T21:41:22.223Z,26.60
2022-12-07T21:43:49.835Z,29.77
2022-12-07T21:46:17.899Z,31.55
2022-12-07T21:48:51.062Z,32.83
2022-12-07T21:51:18.977Z,32.25
2022-12-07T21:53:45.918Z,32.83
2022-12-07T21:56:20.102Z,31.35
2022-12-07T21:58:48.312Z,28.73
2022-12-07T22:01:26.531Z,29.65
2022-12-07T22:03:54.400Z,31.63
2022-12-07T22:06:24.319Z,33.63
2022-12-07T22:08:52.705Z,36.70
2022-12-07T22:11:20.126Z,37.45
2022-12-07T22:14:10.353Z,37.38
2022-12-07T22:16:38.607Z,36.45
2022-12-07T22:19:06.210Z,32.75
2022-12-07T22:21:35.363Z,29.63
2022-12-07T22:24:02.947Z,29.30
2022-12-07T22:26:29.966Z,30.08
2022-12-07T22:28:56.831Z,30.83
2022-12-07T22:31:24.265Z,29.80
2022-12-07T22:33:52.032Z,32.92
2022-12-07T22:36:19.597Z,31.60
2022-12-07T22:38:47.517Z,32.35
2022-12-07T22:41:28.594Z,30.60
2022-12-07T22:43:56.554Z,28.38
2022-12-07T22:46:24.943Z,31.00
2022-12-07T22:48:52.515Z,32.28
2022-12-07T22:51:25.749Z,34.97
2022-12-07T22:53:53.739Z,30.65
2022-12-07T22:56:21.792Z,37.15
2022-12-07T22:58:49.473Z,33.53
2022-12-07T23:01:18.888Z,28.92
2022-12-07T23:03:46.458Z,28.73
2022-12-07T23:06:19.782Z,27.85
2022-12-07T23:08:46.848Z,28.20
2022-12-07T23:11:38.161Z,27.25
2022-12-07T23:14:10.898Z,26.17
2022-12-07T23:16:38.034Z,27.75
2022-12-07T23:19:04.972Z,25.85
2022-12-07T23:21:32.264Z,25.25
2022-12-07T23:23:59.063Z,25.15
2022-12-07T23:26:26.043Z,22.33
2022-12-07T23:28:53.094Z,24.90
2022-12-07T23:31:21.376Z,28.08
2022-12-07T23:33:48.342Z,29.95
2022-12-07T23:36:24.202Z,28.15
2022-12-07T23:38:55.037Z,33.08
2022-12-07T23:41:24.838Z,33.53
2022-12-07T23:43:51.804Z,26.30
2022-12-07T23:46:30.587Z,27.42
2022-12-07T23:48:58.646Z,23.67
2022-12-07T23:51:26.088Z,24.67
2022-12-07T23:53:54.306Z,25.30
2022-12-07T23:56:26.790Z,23.67
2022-12-07T23:58:55.085Z,24.17
